sensor_id;sensor_type;location;lat;lon;timestamp;pressure;altitude;pressure_sealevel;temperature;humidity
31062;BME280;17724;53.546;9.974;2022-08-19T00:02:29;101226.56;;;21.94;84.89
31062;BME280;17724;53.546;9.974;2022-08-19T00:06:31;101207.66;;;22.00;84.78
31062;BME280;17724;53.546;9.974;2022-08-19T00:10:31;101210.31;;;22.05;84.35
31062;BME280;17724;53.546;9.974;2022-08-19T00:14:32;101198.94;;;22.01;83.77
31062;BME280;17724;53.546;9.974;2022-08-19T00:18:33;101209.88;;;21.63;85.25
31062;BME280;17724;53.546;9.974;2022-08-19T00:22:34;101209.47;;;21.96;84.60
31062;BME280;17724;53.546;9.974;2022-08-19T00:26:36;101209.47;;;22.04;84.03
31062;BME280;17724;53.546;9.974;2022-08-19T00:30:36;101212.28;;;22.04;84.71
31062;BME280;17724;53.546;9.974;2022-08-19T00:34:37;101207.19;;;22.06;84.61
31062;BME280;17724;53.546;9.974;2022-08-19T00:38:38;101206.50;;;22.01;84.08
31062;BME280;17724;53.546;9.974;2022-08-19T00:42:43;101196.44;;;21.91;83.82
31062;BME280;17724;53.546;9.974;2022-08-19T00:46:46;101201.69;;;21.84;84.15
31062;BME280;17724;53.546;9.974;2022-08-19T00:50:49;101187.53;;;21.89;84.56
31062;BME280;17724;53.546;9.974;2022-08-19T00:54:51;101185.56;;;21.98;84.80
31062;BME280;17724;53.546;9.974;2022-08-19T00:58:55;101191.81;;;21.86;84.54
31062;BME280;17724;53.546;9.974;2022-08-19T01:02:56;101187.72;;;21.93;84.61
31062;BME280;17724;53.546;9.974;2022-08-19T01:06:58;101183.44;;;21.86;84.68
31062;BME280;17724;53.546;9.974;2022-08-19T01:10:59;101193.28;;;21.75;85.24
31062;BME280;17724;53.546;9.974;2022-08-19T01:15:01;101197.72;;;21.76;85.59
31062;BME280;17724;53.546;9.974;2022-08-19T01:19:02;101197.06;;;21.79;85.15
31062;BME280;17724;53.546;9.974;2022-08-19T01:23:04;101197.16;;;21.65;85.83
31062;BME280;17724;53.546;9.974;2022-08-19T01:27:05;101186.97;;;21.70;85.32
31062;BME280;17724;53.546;9.974;2022-08-19T01:31:12;101186.66;;;21.71;85.17
31062;BME280;17724;53.546;9.974;2022-08-19T01:35:13;101189.31;;;21.76;85.23
31062;BME280;17724;53.546;9.974;2022-08-19T01:39:19;101180.09;;;21.76;85.92
31062;BME280;17724;53.546;9.974;2022-08-19T01:43:20;101173.50;;;21.80;85.06
31062;BME280;17724;53.546;9.974;2022-08-19T01:47:20;101170.53;;;21.77;85.65
31062;BME280;17724;53.546;9.974;2022-08-19T01:51:21;101164.63;;;21.78;86.00
31062;BME280;17724;53.546;9.974;2022-08-19T01:55:21;101156.16;;;21.30;86.89
31062;BME280;17724;53.546;9.974;2022-08-19T01:59:24;101155.84;;;21.62;87.27
31062;BME280;17724;53.546;9.974;2022-08-19T02:03:24;101165.75;;;21.77;86.58
31062;BME280;17724;53.546;9.974;2022-08-19T02:07:25;101167.56;;;21.73;86.06
31062;BME280;17724;53.546;9.974;2022-08-19T02:11:29;101159.16;;;21.64;86.49
31062;BME280;17724;53.546;9.974;2022-08-19T02:15:31;101147.06;;;21.47;88.14
31062;BME280;17724;53.546;9.974;2022-08-19T02:19:32;101144.81;;;21.66;87.60
31062;BME280;17724;53.546;9.974;2022-08-19T02:23:33;101130.50;;;21.68;87.44
31062;BME280;17724;53.546;9.974;2022-08-19T02:27:33;101119.94;;;21.56;87.44
31062;BME280;17724;53.546;9.974;2022-08-19T02:31:33;101124.03;;;21.50;87.98
31062;BME280;17724;53.546;9.974;2022-08-19T02:35:34;101132.91;;;21.43;88.96
31062;BME280;17724;53.546;9.974;2022-08-19T02:39:34;101148.97;;;21.06;91.29
31062;BME280;17724;53.546;9.974;2022-08-19T02:43:35;101141.78;;;21.45;90.80
31062;BME280;17724;53.546;9.974;2022-08-19T02:47:36;101139.78;;;21.37;90.24
31062;BME280;17724;53.546;9.974;2022-08-19T02:51:41;101140.78;;;21.41;90.30
31062;BME280;17724;53.546;9.974;2022-08-19T02:55:44;101141.84;;;20.91;92.74
31062;BME280;17724;53.546;9.974;2022-08-19T03:03:46;101148.00;;;21.33;91.37
31062;BME280;17724;53.546;9.974;2022-08-19T03:07:46;101148.00;;;21.33;90.89
31062;BME280;17724;53.546;9.974;2022-08-19T03:11:47;101159.47;;;21.32;91.73
31062;BME280;17724;53.546;9.974;2022-08-19T03:15:48;101146.72;;;21.39;91.05
31062;BME280;17724;53.546;9.974;2022-08-19T03:19:48;101148.81;;;21.34;91.12
31062;BME280;17724;53.546;9.974;2022-08-19T03:23:49;101144.56;;;21.14;91.58
31062;BME280;17724;53.546;9.974;2022-08-19T03:27:50;101152.56;;;20.98;93.00
31062;BME280;17724;53.546;9.974;2022-08-19T03:31:50;101151.19;;;21.18;93.06
31062;BME280;17724;53.546;9.974;2022-08-19T03:40:02;101150.06;;;21.19;92.94
31062;BME280;17724;53.546;9.974;2022-08-19T03:44:03;101157.28;;;20.89;95.31
31062;BME280;17724;53.546;9.974;2022-08-19T03:48:05;101155.88;;;20.78;95.37
31062;BME280;17724;53.546;9.974;2022-08-19T03:52:05;101163.34;;;20.46;97.63
31062;BME280;17724;53.546;9.974;2022-08-19T03:56:09;101158.56;;;20.83;97.45
31062;BME280;17724;53.546;9.974;2022-08-19T04:00:10;101164.09;;;21.05;95.48
31062;BME280;17724;53.546;9.974;2022-08-19T04:04:11;101175.00;;;21.07;94.94
31062;BME280;17724;53.546;9.974;2022-08-19T04:08:12;101174.28;;;21.01;95.30
31062;BME280;17724;53.546;9.974;2022-08-19T04:12:13;101185.03;;;21.08;94.78
31062;BME280;17724;53.546;9.974;2022-08-19T04:16:13;101183.63;;;20.97;95.07
31062;BME280;17724;53.546;9.974;2022-08-19T04:20:14;101187.00;;;21.07;94.61
31062;BME280;17724;53.546;9.974;2022-08-19T04:24:18;101200.97;;;21.07;94.31
31062;BME280;17724;53.546;9.974;2022-08-19T04:28:18;101202.63;;;21.08;94.18
31062;BME280;17724;53.546;9.974;2022-08-19T04:32:19;101198.38;;;20.88;95.51
31062;BME280;17724;53.546;9.974;2022-08-19T04:36:25;101204.66;;;20.94;95.14
31062;BME280;17724;53.546;9.974;2022-08-19T04:40:26;101210.41;;;20.89;95.32
31062;BME280;17724;53.546;9.974;2022-08-19T04:44:45;101208.03;;;20.82;95.89
31062;BME280;17724;53.546;9.974;2022-08-19T04:48:46;101208.69;;;20.79;96.24
31062;BME280;17724;53.546;9.974;2022-08-19T04:52:46;101208.38;;;20.81;96.78
31062;BME280;17724;53.546;9.974;2022-08-19T04:56:46;101214.09;;;20.76;98.38
31062;BME280;17724;53.546;9.974;2022-08-19T05:00:50;101212.03;;;20.90;98.17
31062;BME280;17724;53.546;9.974;2022-08-19T05:04:58;101224.81;;;20.82;98.58
31062;BME280;17724;53.546;9.974;2022-08-19T05:09:04;101224.81;;;20.82;97.90
31062;BME280;17724;53.546;9.974;2022-08-19T05:13:04;101224.75;;;20.74;97.46
31062;BME280;17724;53.546;9.974;2022-08-19T05:17:05;101225.25;;;20.76;97.90
31062;BME280;17724;53.546;9.974;2022-08-19T05:21:13;101220.09;;;20.69;98.15
31062;BME280;17724;53.546;9.974;2022-08-19T05:25:32;101227.72;;;20.77;97.84
31062;BME280;17724;53.546;9.974;2022-08-19T05:29:34;101232.81;;;20.75;97.66
31062;BME280;17724;53.546;9.974;2022-08-19T05:33:34;101233.06;;;20.65;97.05
31062;BME280;17724;53.546;9.974;2022-08-19T05:37:35;101238.19;;;20.49;97.98
31062;BME280;17724;53.546;9.974;2022-08-19T05:41:35;101237.44;;;20.57;98.19
31062;BME280;17724;53.546;9.974;2022-08-19T05:45:40;101231.03;;;20.57;97.56
31062;BME280;17724;53.546;9.974;2022-08-19T05:49:41;101235.34;;;20.63;97.57
31062;BME280;17724;53.546;9.974;2022-08-19T05:53:42;101240.63;;;20.64;97.56
31062;BME280;17724;53.546;9.974;2022-08-19T05:57:45;101230.66;;;20.72;97.45
31062;BME280;17724;53.546;9.974;2022-08-19T06:01:47;101229.63;;;20.68;97.49
31062;BME280;17724;53.546;9.974;2022-08-19T06:05:50;101230.06;;;20.61;97.36
31062;BME280;17724;53.546;9.974;2022-08-19T06:09:51;101231.63;;;20.67;97.70
31062;BME280;17724;53.546;9.974;2022-08-19T06:13:53;101232.56;;;20.63;97.96
31062;BME280;17724;53.546;9.974;2022-08-19T06:17:53;101238.44;;;20.61;97.43
31062;BME280;17724;53.546;9.974;2022-08-19T06:21:53;101249.81;;;20.65;98.44
31062;BME280;17724;53.546;9.974;2022-08-19T06:25:54;101240.88;;;20.77;97.84
31062;BME280;17724;53.546;9.974;2022-08-19T06:29:54;101239.63;;;20.83;97.50
31062;BME280;17724;53.546;9.974;2022-08-19T06:33:55;101231.94;;;20.88;97.02
31062;BME280;17724;53.546;9.974;2022-08-19T06:37:55;101231.53;;;20.81;96.94
31062;BME280;17724;53.546;9.974;2022-08-19T06:41:58;101227.69;;;20.91;96.29
31062;BME280;17724;53.546;9.974;2022-08-19T06:45:59;101226.66;;;20.87;96.38
31062;BME280;17724;53.546;9.974;2022-08-19T06:50:01;101215.94;;;20.80;96.48
31062;BME280;17724;53.546;9.974;2022-08-19T06:54:02;101228.13;;;20.84;96.41
31062;BME280;17724;53.546;9.974;2022-08-19T06:58:04;101225.97;;;20.81;96.36
31062;BME280;17724;53.546;9.974;2022-08-19T07:02:06;101232.16;;;20.78;96.44
31062;BME280;17724;53.546;9.974;2022-08-19T07:06:09;101230.78;;;20.89;96.27
31062;BME280;17724;53.546;9.974;2022-08-19T07:10:10;101232.91;;;20.84;96.30
31062;BME280;17724;53.546;9.974;2022-08-19T07:14:19;101232.63;;;20.94;95.92
31062;BME280;17724;53.546;9.974;2022-08-19T07:18:20;101233.81;;;21.02;95.42
31062;BME280;17724;53.546;9.974;2022-08-19T07:22:21;101226.59;;;21.01;94.86
31062;BME280;17724;53.546;9.974;2022-08-19T07:26:31;101234.09;;;20.91;94.75
31062;BME280;17724;53.546;9.974;2022-08-19T07:30:32;101239.56;;;20.97;94.90
31062;BME280;17724;53.546;9.974;2022-08-19T07:34:34;101247.38;;;21.08;94.43
31062;BME280;17724;53.546;9.974;2022-08-19T07:38:39;101255.53;;;21.19;94.01
31062;BME280;17724;53.546;9.974;2022-08-19T07:42:40;101263.78;;;21.24;93.34
31062;BME280;17724;53.546;9.974;2022-08-19T07:46:45;101260.34;;;21.27;93.02
31062;BME280;17724;53.546;9.974;2022-08-19T07:50:46;101273.38;;;21.31;92.63
31062;BME280;17724;53.546;9.974;2022-08-19T07:54:48;101271.41;;;21.09;92.50
31062;BME280;17724;53.546;9.974;2022-08-19T07:58:51;101278.00;;;20.91;92.81
31062;BME280;17724;53.546;9.974;2022-08-19T08:02:53;101282.97;;;21.16;92.31
31062;BME280;17724;53.546;9.974;2022-08-19T08:06:54;101288.69;;;21.11;92.65
31062;BME280;17724;53.546;9.974;2022-08-19T08:11:14;101299.25;;;21.37;91.73
31062;BME280;17724;53.546;9.974;2022-08-19T08:15:16;101296.97;;;21.39;90.91
31062;BME280;17724;53.546;9.974;2022-08-19T08:19:18;101298.97;;;21.25;90.88
31062;BME280;17724;53.546;9.974;2022-08-19T08:23:19;101298.94;;;21.16;90.82
31062;BME280;17724;53.546;9.974;2022-08-19T08:27:22;101302.47;;;21.08;91.82
31062;BME280;17724;53.546;9.974;2022-08-19T08:31:22;101306.16;;;21.17;90.82
31062;BME280;17724;53.546;9.974;2022-08-19T08:35:24;101310.88;;;21.08;91.42
31062;BME280;17724;53.546;9.974;2022-08-19T08:39:25;101317.84;;;21.33;90.83
31062;BME280;17724;53.546;9.974;2022-08-19T08:43:32;101314.97;;;21.47;90.97
31062;BME280;17724;53.546;9.974;2022-08-19T08:47:36;101313.09;;;21.64;90.08
31062;BME280;17724;53.546;9.974;2022-08-19T08:51:45;101313.09;;;21.20;90.57
31062;BME280;17724;53.546;9.974;2022-08-19T08:55:47;101309.41;;;21.10;91.04
31062;BME280;17724;53.546;9.974;2022-08-19T08:59:48;101316.75;;;21.43;90.74
31062;BME280;17724;53.546;9.974;2022-08-19T09:03:51;101310.56;;;21.32;91.17
31062;BME280;17724;53.546;9.974;2022-08-19T09:08:06;101313.28;;;21.01;91.90
31062;BME280;17724;53.546;9.974;2022-08-19T09:16:21;101311.06;;;21.56;90.57
31062;BME280;17724;53.546;9.974;2022-08-19T09:20:24;101318.34;;;21.66;90.16
31062;BME280;17724;53.546;9.974;2022-08-19T09:24:26;101319.03;;;21.63;89.57
31062;BME280;17724;53.546;9.974;2022-08-19T09:28:26;101318.03;;;21.36;89.82
31062;BME280;17724;53.546;9.974;2022-08-19T09:32:27;101319.66;;;21.37;90.70
31062;BME280;17724;53.546;9.974;2022-08-19T09:36:28;101311.38;;;21.10;91.25
31062;BME280;17724;53.546;9.974;2022-08-19T09:40:30;101310.91;;;20.94;92.25
31062;BME280;17724;53.546;9.974;2022-08-19T09:44:30;101314.41;;;21.36;91.36
31062;BME280;17724;53.546;9.974;2022-08-19T09:48:35;101304.22;;;21.40;90.73
31062;BME280;17724;53.546;9.974;2022-08-19T09:52:36;101311.63;;;21.67;89.64
31062;BME280;17724;53.546;9.974;2022-08-19T09:56:36;101317.75;;;21.78;89.73
31062;BME280;17724;53.546;9.974;2022-08-19T10:00:37;101318.25;;;21.49;90.19
31062;BME280;17724;53.546;9.974;2022-08-19T10:04:38;101313.47;;;21.72;89.60
31062;BME280;17724;53.546;9.974;2022-08-19T10:09:09;101312.94;;;21.70;89.50
31062;BME280;17724;53.546;9.974;2022-08-19T10:13:12;101321.53;;;21.73;90.01
31062;BME280;17724;53.546;9.974;2022-08-19T10:17:12;101324.03;;;21.75;90.00
31062;BME280;17724;53.546;9.974;2022-08-19T10:21:17;101321.22;;;21.75;89.94
31062;BME280;17724;53.546;9.974;2022-08-19T10:25:18;101320.63;;;21.86;89.98
31062;BME280;17724;53.546;9.974;2022-08-19T10:29:19;101329.09;;;22.04;89.82
31062;BME280;17724;53.546;9.974;2022-08-19T10:33:19;101324.47;;;21.99;89.58
31062;BME280;17724;53.546;9.974;2022-08-19T10:37:20;101320.00;;;21.98;89.89
31062;BME280;17724;53.546;9.974;2022-08-19T10:41:22;101320.19;;;22.02;89.54
31062;BME280;17724;53.546;9.974;2022-08-19T10:45:23;101324.03;;;21.75;90.21
31062;BME280;17724;53.546;9.974;2022-08-19T10:49:26;101326.81;;;21.75;90.81
31062;BME280;17724;53.546;9.974;2022-08-19T10:53:26;101325.34;;;21.77;90.79
31062;BME280;17724;53.546;9.974;2022-08-19T10:57:31;101321.69;;;21.68;91.22
31062;BME280;17724;53.546;9.974;2022-08-19T11:01:32;101319.22;;;21.67;91.58
31062;BME280;17724;53.546;9.974;2022-08-19T11:05:34;101312.47;;;21.68;91.90
31062;BME280;17724;53.546;9.974;2022-08-19T11:09:40;101305.78;;;21.86;91.42
31062;BME280;17724;53.546;9.974;2022-08-19T11:13:41;101311.91;;;21.88;91.06
31062;BME280;17724;53.546;9.974;2022-08-19T11:17:42;101319.00;;;21.94;90.90
31062;BME280;17724;53.546;9.974;2022-08-19T11:21:46;101320.06;;;21.76;91.74
31062;BME280;17724;53.546;9.974;2022-08-19T11:25:46;101319.91;;;22.12;91.03
31062;BME280;17724;53.546;9.974;2022-08-19T11:29:47;101328.88;;;22.23;90.15
31062;BME280;17724;53.546;9.974;2022-08-19T11:33:48;101318.16;;;22.25;89.40
31062;BME280;17724;53.546;9.974;2022-08-19T11:37:53;101310.56;;;22.25;89.91
31062;BME280;17724;53.546;9.974;2022-08-19T11:41:55;101300.75;;;22.54;89.00
31062;BME280;17724;53.546;9.974;2022-08-19T11:45:55;101299.28;;;22.74;87.95
31062;BME280;17724;53.546;9.974;2022-08-19T11:49:57;101302.56;;;22.50;87.22
31062;BME280;17724;53.546;9.974;2022-08-19T11:53:58;101292.69;;;22.52;87.57
31062;BME280;17724;53.546;9.974;2022-08-19T11:57:59;101308.84;;;22.55;87.13
31062;BME280;17724;53.546;9.974;2022-08-19T12:01:59;101296.53;;;22.17;88.67
31062;BME280;17724;53.546;9.974;2022-08-19T12:06:05;101302.06;;;22.48;87.87
31062;BME280;17724;53.546;9.974;2022-08-19T12:10:05;101297.97;;;22.62;86.96
31062;BME280;17724;53.546;9.974;2022-08-19T12:14:10;101298.72;;;22.28;86.84
31062;BME280;17724;53.546;9.974;2022-08-19T12:18:11;101306.34;;;22.45;88.06
31062;BME280;17724;53.546;9.974;2022-08-19T12:22:13;101298.63;;;22.59;86.88
31062;BME280;17724;53.546;9.974;2022-08-19T12:26:14;101301.78;;;22.84;86.49
31062;BME280;17724;53.546;9.974;2022-08-19T12:30:15;101299.00;;;23.01;85.86
31062;BME280;17724;53.546;9.974;2022-08-19T12:34:16;101287.75;;;23.27;85.23
31062;BME280;17724;53.546;9.974;2022-08-19T12:38:17;101284.91;;;23.45;84.48
31062;BME280;17724;53.546;9.974;2022-08-19T12:42:17;101284.53;;;23.72;83.39
31062;BME280;17724;53.546;9.974;2022-08-19T12:46:19;101275.13;;;23.68;82.50
31062;BME280;17724;53.546;9.974;2022-08-19T12:50:20;101283.56;;;23.68;82.30
31062;BME280;17724;53.546;9.974;2022-08-19T12:54:21;101273.66;;;23.62;81.72
31062;BME280;17724;53.546;9.974;2022-08-19T12:58:21;101273.81;;;23.66;81.82
31062;BME280;17724;53.546;9.974;2022-08-19T13:02:22;101276.88;;;23.81;81.85
31062;BME280;17724;53.546;9.974;2022-08-19T13:06:23;101278.72;;;23.86;80.82
31062;BME280;17724;53.546;9.974;2022-08-19T13:10:27;101278.38;;;23.88;80.06
31062;BME280;17724;53.546;9.974;2022-08-19T13:14:28;101271.50;;;24.06;79.79
31062;BME280;17724;53.546;9.974;2022-08-19T13:18:30;101280.75;;;24.06;79.50
31062;BME280;17724;53.546;9.974;2022-08-19T13:22:32;101269.06;;;23.96;78.26
31062;BME280;17724;53.546;9.974;2022-08-19T13:26:32;101262.84;;;23.81;79.48
31062;BME280;17724;53.546;9.974;2022-08-19T13:30:33;101269.50;;;23.68;80.52
31062;BME280;17724;53.546;9.974;2022-08-19T13:34:51;101258.28;;;23.68;80.05
31062;BME280;17724;53.546;9.974;2022-08-19T13:38:52;101259.97;;;23.52;80.54
31062;BME280;17724;53.546;9.974;2022-08-19T13:42:54;101258.66;;;23.96;80.01
31062;BME280;17724;53.546;9.974;2022-08-19T13:47:00;101250.88;;;24.02;78.93
31062;BME280;17724;53.546;9.974;2022-08-19T13:51:05;101246.25;;;23.97;78.75
31062;BME280;17724;53.546;9.974;2022-08-19T13:55:07;101253.47;;;24.07;78.50
31062;BME280;17724;53.546;9.974;2022-08-19T13:59:08;101254.97;;;24.04;78.07
31062;BME280;17724;53.546;9.974;2022-08-19T14:03:09;101256.50;;;24.02;77.96
31062;BME280;17724;53.546;9.974;2022-08-19T14:07:09;101250.00;;;24.10;78.24
31062;BME280;17724;53.546;9.974;2022-08-19T14:11:10;101257.16;;;23.99;77.09
31062;BME280;17724;53.546;9.974;2022-08-19T14:15:12;101263.50;;;24.17;77.36
31062;BME280;17724;53.546;9.974;2022-08-19T14:19:12;101247.94;;;24.19;77.15
31062;BME280;17724;53.546;9.974;2022-08-19T14:23:13;101246.31;;;24.18;77.34
31062;BME280;17724;53.546;9.974;2022-08-19T14:27:14;101262.69;;;24.16;77.44
31062;BME280;17724;53.546;9.974;2022-08-19T14:31:18;101250.47;;;24.12;76.99
31062;BME280;17724;53.546;9.974;2022-08-19T14:35:20;101250.09;;;24.22;76.92
31062;BME280;17724;53.546;9.974;2022-08-19T14:39:21;101245.97;;;24.20;76.61
31062;BME280;17724;53.546;9.974;2022-08-19T14:43:22;101244.41;;;24.31;76.46
31062;BME280;17724;53.546;9.974;2022-08-19T14:47:22;101243.69;;;24.43;76.44
31062;BME280;17724;53.546;9.974;2022-08-19T14:51:24;101250.22;;;24.55;75.68
31062;BME280;17724;53.546;9.974;2022-08-19T14:55:26;101247.75;;;24.54;75.76
31062;BME280;17724;53.546;9.974;2022-08-19T14:59:27;101251.25;;;24.51;76.01
31062;BME280;17724;53.546;9.974;2022-08-19T15:03:28;101272.22;;;24.53;75.16
31062;BME280;17724;53.546;9.974;2022-08-19T15:07:29;101264.53;;;24.12;74.60
31062;BME280;17724;53.546;9.974;2022-08-19T15:11:30;101264.41;;;24.29;76.33
31062;BME280;17724;53.546;9.974;2022-08-19T15:15:32;101277.97;;;24.57;75.34
31062;BME280;17724;53.546;9.974;2022-08-19T15:19:33;101277.31;;;24.60;75.47
31062;BME280;17724;53.546;9.974;2022-08-19T15:23:35;101278.69;;;24.75;75.05
31062;BME280;17724;53.546;9.974;2022-08-19T15:27:37;101270.84;;;24.80;74.25
31062;BME280;17724;53.546;9.974;2022-08-19T15:31:38;101275.19;;;24.78;73.94
31062;BME280;17724;53.546;9.974;2022-08-19T15:35:40;101281.06;;;24.85;73.74
31062;BME280;17724;53.546;9.974;2022-08-19T15:39:41;101285.34;;;24.91;73.05
31062;BME280;17724;53.546;9.974;2022-08-19T15:43:42;101284.75;;;24.86;74.71
31062;BME280;17724;53.546;9.974;2022-08-19T15:47:42;101278.84;;;24.78;71.18
31062;BME280;17724;53.546;9.974;2022-08-19T15:51:45;101277.94;;;24.87;71.77
31062;BME280;17724;53.546;9.974;2022-08-19T15:55:46;101277.22;;;24.69;71.47
31062;BME280;17724;53.546;9.974;2022-08-19T15:59:47;101277.19;;;24.98;71.36
31062;BME280;17724;53.546;9.974;2022-08-19T16:04:06;101279.28;;;25.01;70.73
31062;BME280;17724;53.546;9.974;2022-08-19T16:08:25;101270.31;;;24.87;71.82
31062;BME280;17724;53.546;9.974;2022-08-19T16:12:25;101275.84;;;24.96;70.74
31062;BME280;17724;53.546;9.974;2022-08-19T16:16:30;101269.81;;;25.06;70.61
31062;BME280;17724;53.546;9.974;2022-08-19T16:20:32;101267.91;;;24.98;68.77
31062;BME280;17724;53.546;9.974;2022-08-19T16:24:33;101261.44;;;24.97;68.80
31062;BME280;17724;53.546;9.974;2022-08-19T16:28:33;101267.22;;;24.80;67.96
31062;BME280;17724;53.546;9.974;2022-08-19T16:32:34;101256.25;;;24.87;68.49
31062;BME280;17724;53.546;9.974;2022-08-19T16:36:34;101255.00;;;24.76;67.82
31062;BME280;17724;53.546;9.974;2022-08-19T16:40:35;101259.75;;;24.42;68.63
31062;BME280;17724;53.546;9.974;2022-08-19T16:44:39;101260.44;;;24.81;69.59
31062;BME280;17724;53.546;9.974;2022-08-19T16:48:40;101268.72;;;24.98;69.02
31062;BME280;17724;53.546;9.974;2022-08-19T16:52:42;101263.28;;;24.93;68.41
31062;BME280;17724;53.546;9.974;2022-08-19T16:56:43;101273.13;;;24.87;68.45
31062;BME280;17724;53.546;9.974;2022-08-19T17:00:44;101267.22;;;24.80;67.48
31062;BME280;17724;53.546;9.974;2022-08-19T17:04:45;101265.53;;;24.67;67.65
31062;BME280;17724;53.546;9.974;2022-08-19T17:08:50;101265.44;;;24.54;67.92
31062;BME280;17724;53.546;9.974;2022-08-19T17:12:51;101263.84;;;24.45;67.95
31062;BME280;17724;53.546;9.974;2022-08-19T17:16:53;101264.50;;;24.50;68.99
31062;BME280;17724;53.546;9.974;2022-08-19T17:20:54;101260.97;;;24.53;69.21
31062;BME280;17724;53.546;9.974;2022-08-19T17:24:55;101264.81;;;24.49;68.85
31062;BME280;17724;53.546;9.974;2022-08-19T17:28:57;101265.53;;;24.46;68.91
31062;BME280;17724;53.546;9.974;2022-08-19T17:32:58;101264.28;;;24.55;69.01
31062;BME280;17724;53.546;9.974;2022-08-19T17:36:58;101270.38;;;24.57;69.11
31062;BME280;17724;53.546;9.974;2022-08-19T17:40:59;101271.69;;;24.60;69.40
31062;BME280;17724;53.546;9.974;2022-08-19T17:45:05;101272.84;;;24.59;69.45
31062;BME280;17724;53.546;9.974;2022-08-19T17:49:05;101269.09;;;24.55;69.32
31062;BME280;17724;53.546;9.974;2022-08-19T17:53:06;101267.47;;;24.45;70.03
31062;BME280;17724;53.546;9.974;2022-08-19T17:57:07;101269.16;;;24.46;70.77
31062;BME280;17724;53.546;9.974;2022-08-19T18:01:12;101272.09;;;24.50;71.45
31062;BME280;17724;53.546;9.974;2022-08-19T18:05:13;101266.34;;;24.46;71.91
31062;BME280;17724;53.546;9.974;2022-08-19T18:09:13;101265.72;;;24.32;72.23
31062;BME280;17724;53.546;9.974;2022-08-19T18:13:14;101254.91;;;24.22;72.34
31062;BME280;17724;53.546;9.974;2022-08-19T18:17:15;101251.13;;;24.18;72.67
31062;BME280;17724;53.546;9.974;2022-08-19T18:21:18;101253.91;;;23.88;72.48
31062;BME280;17724;53.546;9.974;2022-08-19T18:25:24;101260.13;;;24.02;72.67
31062;BME280;17724;53.546;9.974;2022-08-19T18:29:25;101263.09;;;23.97;72.44
31062;BME280;17724;53.546;9.974;2022-08-19T18:33:32;101260.84;;;23.91;72.44
31062;BME280;17724;53.546;9.974;2022-08-19T18:37:33;101253.81;;;24.05;73.41
31062;BME280;17724;53.546;9.974;2022-08-19T18:41:34;101255.28;;;24.12;72.38
31062;BME280;17724;53.546;9.974;2022-08-19T18:45:53;101256.63;;;24.05;72.56
31062;BME280;17724;53.546;9.974;2022-08-19T18:50:13;101257.31;;;24.02;72.35
31062;BME280;17724;53.546;9.974;2022-08-19T18:54:14;101248.44;;;23.92;72.94
31062;BME280;17724;53.546;9.974;2022-08-19T18:58:15;101247.97;;;23.81;72.77
31062;BME280;17724;53.546;9.974;2022-08-19T19:02:15;101249.16;;;23.80;73.39
31062;BME280;17724;53.546;9.974;2022-08-19T19:06:23;101246.69;;;23.78;73.35
31062;BME280;17724;53.546;9.974;2022-08-19T19:10:24;101238.28;;;23.70;73.48
31062;BME280;17724;53.546;9.974;2022-08-19T19:14:29;101256.28;;;23.69;73.27
31062;BME280;17724;53.546;9.974;2022-08-19T19:18:31;101267.34;;;23.65;73.14
31062;BME280;17724;53.546;9.974;2022-08-19T19:22:33;101274.16;;;23.55;73.49
31062;BME280;17724;53.546;9.974;2022-08-19T19:26:33;101273.03;;;23.48;74.26
31062;BME280;17724;53.546;9.974;2022-08-19T19:30:35;101279.13;;;23.41;74.68
31062;BME280;17724;53.546;9.974;2022-08-19T19:34:37;101281.31;;;23.35;75.00
31062;BME280;17724;53.546;9.974;2022-08-19T19:38:38;101279.97;;;23.33;74.88
31062;BME280;17724;53.546;9.974;2022-08-19T19:42:42;101289.06;;;23.30;75.05
31062;BME280;17724;53.546;9.974;2022-08-19T19:46:42;101294.19;;;23.28;75.22
31062;BME280;17724;53.546;9.974;2022-08-19T19:50:43;101281.34;;;23.27;76.53
31062;BME280;17724;53.546;9.974;2022-08-19T19:54:44;101283.63;;;23.25;77.02
31062;BME280;17724;53.546;9.974;2022-08-19T19:58:45;101280.00;;;23.24;76.60
31062;BME280;17724;53.546;9.974;2022-08-19T20:02:47;101284.63;;;23.20;76.06
31062;BME280;17724;53.546;9.974;2022-08-19T20:06:48;101293.41;;;23.19;75.98
31062;BME280;17724;53.546;9.974;2022-08-19T20:10:49;101303.28;;;23.16;76.25
31062;BME280;17724;53.546;9.974;2022-08-19T20:14:49;101306.59;;;23.18;76.27
31062;BME280;17724;53.546;9.974;2022-08-19T20:18:50;101318.47;;;23.15;76.48
31062;BME280;17724;53.546;9.974;2022-08-19T20:22:51;101322.75;;;23.13;76.30
31062;BME280;17724;53.546;9.974;2022-08-19T20:26:53;101324.09;;;23.06;76.81
31062;BME280;17724;53.546;9.974;2022-08-19T20:30:53;101344.88;;;23.05;77.09
31062;BME280;17724;53.546;9.974;2022-08-19T20:34:57;101346.38;;;23.03;77.31
31062;BME280;17724;53.546;9.974;2022-08-19T20:38:57;101358.25;;;23.00;77.17
31062;BME280;17724;53.546;9.974;2022-08-19T20:42:58;101358.72;;;23.02;76.88
31062;BME280;17724;53.546;9.974;2022-08-19T20:46:58;101355.09;;;23.01;77.28
31062;BME280;17724;53.546;9.974;2022-08-19T20:50:58;101345.56;;;23.02;77.03
31062;BME280;17724;53.546;9.974;2022-08-19T20:55:00;101346.69;;;23.01;77.39
31062;BME280;17724;53.546;9.974;2022-08-19T20:59:00;101338.94;;;22.98;77.26
31062;BME280;17724;53.546;9.974;2022-08-19T21:03:03;101342.41;;;22.95;76.86
31062;BME280;17724;53.546;9.974;2022-08-19T21:07:04;101338.88;;;22.90;77.50
31062;BME280;17724;53.546;9.974;2022-08-19T21:11:06;101335.91;;;22.86;77.14
31062;BME280;17724;53.546;9.974;2022-08-19T21:15:07;101334.44;;;22.80;77.53
31062;BME280;17724;53.546;9.974;2022-08-19T21:19:07;101327.38;;;22.82;76.93